Time;durP1;ratioP1;P1;durP2;ratioP2;P2;SDS_P1;SDS_P2;PMS_P1;PMS_P2;Temp;Humidity;BMP_temperature;BMP_pressure;BME280_temperature;BME280_humidity;BME280_pressure;Samples;Min_cycle;Max_cycle;Signal;HPM_P1;HPM_P2
2021/09/05 00:00:07;;;;;;;;;;;;;;;;;;2088530;28;19970;-57
2021/09/05 00:01:08;;;;;;;;;;;;;;;;;;2090123;28;19920;-56
2021/09/05 00:02:09;;;;;;;;;;;;;;;;;;2088824;28;20362;-56
2021/09/05 00:03:10;;;;;;;;;;;;;;;;;;2083448;28;19998;-56
2021/09/05 00:04:11;;;;;;;;;;;;;;;;;;2081860;28;19928;-56
2021/09/05 00:05:12;;;;;;;;;;;;;;;;;;2085390;28;19921;-57
2021/09/05 00:06:13;;;;;;;;;;;;;;;;;;2089609;28;19932;-56
2021/09/05 00:07:14;;;;;;;;;;;;;;;;;;2089732;28;19924;-56
2021/09/05 00:08:14;;;;;;;;;;;;;;;;;;2087862;28;19971;-56
2021/09/05 00:09:15;;;;;;;;;;;;;;;;;;2090029;28;19943;-56
2021/09/05 00:10:16;;;;;;;;;;;;;;;;;;2089859;28;20365;-56
2021/09/05 00:11:17;;;;;;;;;;;;;;;;;;2088735;28;19920;-55
2021/09/05 00:12:18;;;;;;;;;;;;;;;;;;2089965;28;20373;-56
2021/09/05 00:13:18;;;;;;;;;;;;;;;;;;2089960;28;19925;-57
2021/09/05 00:14:19;;;;;;;;;;;;;;;;;;2088522;28;20358;-56
2021/09/05 00:15:20;;;;;;;;;;;;;;;;;;2081516;28;19928;-56
2021/09/05 00:16:21;;;;;;;;;;;;;;;;;;2081703;28;19928;-57
2021/09/05 00:17:22;;;;;;;;;;;;;;;;;;2087458;28;20362;-57
2021/09/05 00:18:23;;;;;;;;;;;;;;;;;;2089939;28;19998;-56
2021/09/05 00:19:23;;;;;;;;;;;;;;;;;;2089516;28;19931;-56
2021/09/05 00:20:24;;;;;;;;;;;;;;;;;;2087928;28;19971;-57
2021/09/05 00:21:29;;;;;;;;;;;;;;;;;;2090072;28;19928;-57
2021/09/05 00:22:30;;;;;;;;;;;;;;;;;;2089339;28;20302;-57
2021/09/05 00:23:30;;;;;;;;;;;;;;;;;;2086328;28;19977;-57
2021/09/05 00:24:31;;;;;;;;;;;;;;;;;;2081557;28;19928;-57
2021/09/05 00:25:32;;;;;;;;;;;;;;;;;;2083156;28;19925;-57
2021/09/05 00:26:33;;;;;;;;;;;;;;;;;;2085698;28;19979;-57
2021/09/05 00:27:33;;;;;;;;;;;;;;;;;;2081715;28;19924;-57
2021/09/05 00:28:34;;;;;;;;;;;;;;;;;;2083283;28;19925;-56
2021/09/05 00:29:35;;;;;;;;;;;;;;;;;;2085359;28;19925;-57
2021/09/05 00:30:37;;;;;;;;;;;;;;;;;;2081679;28;19921;-56
2021/09/05 00:31:37;;;;;;;;;;;;;;;;;;2083792;28;19971;-57
2021/09/05 00:32:38;;;;;;;;;;;;;;;;;;2088378;28;19970;-56
2021/09/05 00:33:39;;;;;;;;;;;;;;;;;;2089890;28;20341;-57
2021/09/05 00:34:40;;;;;;;;;;;;;;;;;;2088994;28;20003;-57
2021/09/05 00:35:40;;;;;;;;;;;;;;;;;;2088352;28;19966;-56
2021/09/05 00:36:41;;;;;;;;;;;;;;;;;;2089908;28;19927;-56
2021/09/05 00:37:42;;;;;;;;;;;;;;;;;;2088872;28;19932;-56
2021/09/05 00:38:43;;;;;;;;;;;;;;;;;;2083657;28;19932;-57
2021/09/05 00:39:44;;;;;;;;;;;;;;;;;;2081610;28;19925;-57
2021/09/05 00:40:45;;;;;;;;;;;;;;;;;;2084414;28;19950;-57
2021/09/05 00:41:47;;;;;;;;;;;;;;;;;;2089528;28;19921;-61
2021/09/05 00:42:47;;;;;;;;;;;;;;;;;;2089815;28;20027;-56
2021/09/05 00:43:48;;;;;;;;;;;;;;;;;;2086137;28;19920;-57
2021/09/05 00:44:49;;;;;;;;;;;;;;;;;;2089533;28;19921;-57
2021/09/05 00:45:50;;;;;;;;;;;;;;;;;;2089703;28;19921;-57
2021/09/05 00:46:51;;;;;;;;;;;;;;;;;;2088489;28;19928;-57
2021/09/05 00:47:51;;;;;;;;;;;;;;;;;;2081688;28;19928;-56
2021/09/05 00:48:52;;;;;;;;;;;;;;;;;;2081567;28;19921;-56
2021/09/05 00:49:53;;;;;;;;;;;;;;;;;;2086395;28;20246;-57
2021/09/05 00:50:54;;;;;;;;;;;;;;;;;;2084037;28;20289;-56
2021/09/05 00:51:55;;;;;;;;;;;;;;;;;;2081513;28;20149;-57
2021/09/05 00:52:55;;;;;;;;;;;;;;;;;;2086496;28;19986;-57
2021/09/05 00:53:56;;;;;;;;;;;;;;;;;;2081086;28;19935;-57
2021/09/05 00:54:57;;;;;;;;;;;;;;;;;;2081615;28;19925;-57
2021/09/05 00:55:58;;;;;;;;;;;;;;;;;;2086443;28;19971;-56
2021/09/05 00:56:59;;;;;;;;;;;;;;;;;;2089744;28;19932;-56
2021/09/05 00:57:59;;;;;;;;;;;;;;;;;;2089358;28;20377;-57
2021/09/05 00:59:03;;;;;;;;;;;;;;;;;;2087785;28;20281;-56
2021/09/05 01:00:03;;;;;;;;;;;;;;;;;;2089801;28;20011;-56
2021/09/05 01:01:04;;;;;;;;;;;;;;;;;;2088942;28;19924;-57
2021/09/05 01:02:05;;;;;;;;;;;;;;;;;;2085941;28;19943;-57
2021/09/05 01:03:06;;;;;;;;;;;;;;;;;;2081428;28;20377;-57
2021/09/05 01:04:07;;;;;;;;;;;;;;;;;;2086565;28;20436;-57
2021/09/05 01:05:08;;;;;;;;;;;;;;;;;;2085193;28;19921;-57
2021/09/05 01:06:09;;;;;;;;;;;;;;;;;;2081412;28;19921;-56
2021/09/05 01:07:10;;;;;;;;;;;;;;;;;;2083430;28;19921;-56
2021/09/05 01:08:11;;;;;;;;;;;;;;;;;;2088085;28;19920;-57
2021/09/05 01:09:12;;;;;;;;;;;;;;;;;;2089770;28;19967;-57
2021/09/05 01:10:13;;;;;;;;;;;;;;;;;;2088759;28;20378;-57
2021/09/05 01:11:14;;;;;;;;;;;;;;;;;;2083176;28;19925;-57
2021/09/05 01:12:15;;;;;;;;;;;;;;;;;;2081400;28;19921;-57
2021/09/05 01:13:15;;;;;;;;;;;;;;;;;;2084771;28;20271;-57
2021/09/05 01:14:16;;;;;;;;;;;;;;;;;;2088083;28;19928;-57
2021/09/05 01:15:17;;;;;;;;;;;;;;;;;;2089634;28;20286;-57
2021/09/05 01:16:18;;;;;;;;;;;;;;;;;;2088612;28;20332;-57
2021/09/05 01:17:19;;;;;;;;;;;;;;;;;;2088492;28;19921;-57
2021/09/05 01:18:20;;;;;;;;;;;;;;;;;;2089696;28;20019;-58
2021/09/05 01:19:20;;;;;;;;;;;;;;;;;;2088674;28;19927;-57
2021/09/05 01:20:21;;;;;;;;;;;;;;;;;;2082542;28;20327;-57
2021/09/05 01:21:22;;;;;;;;;;;;;;;;;;2081497;28;19921;-57
2021/09/05 01:22:23;;;;;;;;;;;;;;;;;;2085234;28;19921;-57
2021/09/05 01:23:24;;;;;;;;;;;;;;;;;;2089286;28;19932;-57
2021/09/05 01:24:24;;;;;;;;;;;;;;;;;;2089703;28;19920;-57
2021/09/05 01:25:25;;;;;;;;;;;;;;;;;;2087169;28;19921;-57
2021/09/05 01:26:26;;;;;;;;;;;;;;;;;;2089412;28;19925;-57
2021/09/05 01:27:27;;;;;;;;;;;;;;;;;;2089434;28;19925;-57
2021/09/05 01:28:27;;;;;;;;;;;;;;;;;;2087198;28;19921;-57
2021/09/05 01:29:28;;;;;;;;;;;;;;;;;;2089474;28;19993;-57
2021/09/05 01:30:29;;;;;;;;;;;;;;;;;;2089479;28;19975;-57
2021/09/05 01:31:30;;;;;;;;;;;;;;;;;;2086568;28;19925;-57
2021/09/05 01:32:31;;;;;;;;;;;;;;;;;;2089490;28;20425;-57
2021/09/05 01:33:32;;;;;;;;;;;;;;;;;;2089267;28;19951;-57
2021/09/05 01:34:32;;;;;;;;;;;;;;;;;;2087569;28;20393;-57
2021/09/05 01:35:33;;;;;;;;;;;;;;;;;;2089541;28;19928;-58
2021/09/05 01:36:34;;;;;;;;;;;;;;;;;;2089099;28;19925;-58
2021/09/05 01:37:35;;;;;;;;;;;;;;;;;;2086667;28;20346;-57
2021/09/05 01:38:36;;;;;;;;;;;;;;;;;;2081211;28;19920;-58
2021/09/05 01:39:37;;;;;;;;;;;;;;;;;;2082061;28;19924;-58
2021/09/05 01:40:37;;;;;;;;;;;;;;;;;;2087588;28;19929;-58
2021/09/05 01:41:38;;;;;;;;;;;;;;;;;;2089590;28;19990;-57
2021/09/05 01:42:39;;;;;;;;;;;;;;;;;;2088910;28;19928;-57
2021/09/05 01:43:40;;;;;;;;;;;;;;;;;;2087584;28;19921;-57
2021/09/05 01:44:41;;;;;;;;;;;;;;;;;;2089486;28;19920;-58
2021/09/05 01:45:41;;;;;;;;;;;;;;;;;;2088587;28;20275;-57
2021/09/05 01:46:42;;;;;;;;;;;;;;;;;;2087978;28;19921;-57
2021/09/05 01:47:43;;;;;;;;;;;;;;;;;;2089381;28;19970;-57
2021/09/05 01:48:44;;;;;;;;;;;;;;;;;;2088688;28;20377;-57
2021/09/05 01:49:45;;;;;;;;;;;;;;;;;;2087825;28;19974;-57
2021/09/05 01:50:46;;;;;;;;;;;;;;;;;;2084894;28;20317;-57
2021/09/05 01:51:46;;;;;;;;;;;;;;;;;;2084049;28;19928;-57
2021/09/05 01:52:47;;;;;;;;;;;;;;;;;;2084024;28;19956;-57
2021/09/05 01:53:48;;;;;;;;;;;;;;;;;;2081350;28;20383;-57
2021/09/05 01:54:49;;;;;;;;;;;;;;;;;;2084437;28;19925;-57
2021/09/05 01:55:49;;;;;;;;;;;;;;;;;;2087920;28;19921;-57
2021/09/05 01:56:50;;;;;;;;;;;;;;;;;;2089440;28;19928;-57
2021/09/05 01:57:51;;;;;;;;;;;;;;;;;;2088192;28;19921;-57
2021/09/05 01:58:52;;;;;;;;;;;;;;;;;;2081106;28;19927;-58
2021/09/05 01:59:53;;;;;;;;;;;;;;;;;;2082977;28;19921;-57
2021/09/05 02:00:54;;;;;;;;;;;;;;;;;;2086967;28;19932;-56
2021/09/05 02:01:54;;;;;;;;;;;;;;;;;;2089469;28;19928;-57
2021/09/05 02:02:56;;;;;;;;;;;;;;;;;;2089362;28;19928;-57
2021/09/05 02:03:56;;;;;;;;;;;;;;;;;;2086054;28;19921;-57
2021/09/05 02:04:57;;;;;;;;;;;;;;;;;;2090298;28;19924;-57
2021/09/05 02:05:58;;;;;;;;;;;;;;;;;;2090235;28;19924;-57
2021/09/05 02:06:59;;;;;;;;;;;;;;;;;;2088897;28;19928;-58
2021/09/05 02:07:59;;;;;;;;;;;;;;;;;;2090716;28;19925;-57
2021/09/05 02:09:00;;;;;;;;;;;;;;;;;;2090531;28;19920;-57
2021/09/05 02:10:01;;;;;;;;;;;;;;;;;;2088746;28;19928;-57
2021/09/05 02:11:02;;;;;;;;;;;;;;;;;;2090853;28;20054;-57
2021/09/05 02:12:03;;;;;;;;;;;;;;;;;;2090221;28;19921;-57
2021/09/05 02:13:04;;;;;;;;;;;;;;;;;;2086799;28;19932;-57
2021/09/05 02:14:04;;;;;;;;;;;;;;;;;;2082559;28;19974;-57
2021/09/05 02:15:05;;;;;;;;;;;;;;;;;;2084335;28;20325;-57
2021/09/05 02:16:07;;;;;;;;;;;;;;;;;;2083345;28;20370;-57
2021/09/05 02:17:08;;;;;;;;;;;;;;;;;;2082436;28;19967;-57
2021/09/05 02:18:08;;;;;;;;;;;;;;;;;;2086152;28;19928;-57
2021/09/05 02:19:09;;;;;;;;;;;;;;;;;;2090161;28;19921;-57
2021/09/05 02:20:10;;;;;;;;;;;;;;;;;;2090843;28;19989;-57
2021/09/05 02:21:11;;;;;;;;;;;;;;;;;;2088457;28;20353;-57
2021/09/05 02:22:11;;;;;;;;;;;;;;;;;;2090261;28;19921;-57
2021/09/05 02:23:12;;;;;;;;;;;;;;;;;;2090564;28;19921;-57
2021/09/05 02:24:13;;;;;;;;;;;;;;;;;;2088376;28;19927;-57
2021/09/05 02:25:14;;;;;;;;;;;;;;;;;;2090526;28;19936;-57
2021/09/05 02:26:15;;;;;;;;;;;;;;;;;;2090770;28;20270;-57
2021/09/05 02:27:16;;;;;;;;;;;;;;;;;;2089185;28;19921;-58
2021/09/05 02:28:16;;;;;;;;;;;;;;;;;;2082444;28;20318;-57
2021/09/05 02:29:17;;;;;;;;;;;;;;;;;;2082477;28;20259;-57
2021/09/05 02:30:18;;;;;;;;;;;;;;;;;;2087799;28;19927;-57
2021/09/05 02:31:19;;;;;;;;;;;;;;;;;;2090536;28;19921;-57
2021/09/05 02:32:20;;;;;;;;;;;;;;;;;;2090187;28;20255;-58
2021/09/05 02:33:21;;;;;;;;;;;;;;;;;;2087510;28;19928;-57
2021/09/05 02:34:21;;;;;;;;;;;;;;;;;;2090761;28;19921;-57
2021/09/05 02:35:22;;;;;;;;;;;;;;;;;;2090031;28;19921;-58
2021/09/05 02:36:25;;;;;;;;;;;;;;;;;;2087721;28;19920;-57
2021/09/05 02:37:26;;;;;;;;;;;;;;;;;;2082397;28;20362;-57
2021/09/05 02:38:27;;;;;;;;;;;;;;;;;;2083518;28;19921;-57
2021/09/05 02:39:28;;;;;;;;;;;;;;;;;;2086972;28;20432;-58
2021/09/05 02:40:29;;;;;;;;;;;;;;;;;;2082412;28;19927;-57
2021/09/05 02:41:30;;;;;;;;;;;;;;;;;;2083889;28;19921;-58
2021/09/05 02:42:30;;;;;;;;;;;;;;;;;;2085690;28;19925;-58
2021/09/05 02:43:31;;;;;;;;;;;;;;;;;;2082418;28;19921;-57
2021/09/05 02:44:32;;;;;;;;;;;;;;;;;;2084246;28;19928;-58
2021/09/05 02:45:33;;;;;;;;;;;;;;;;;;2085727;28;19921;-57
2021/09/05 02:46:34;;;;;;;;;;;;;;;;;;2082465;28;20397;-57
2021/09/05 02:47:34;;;;;;;;;;;;;;;;;;2084858;28;19926;-57
2021/09/05 02:48:35;;;;;;;;;;;;;;;;;;2088970;28;20295;-57
2021/09/05 02:49:36;;;;;;;;;;;;;;;;;;2090663;28;19925;-57
2021/09/05 02:50:37;;;;;;;;;;;;;;;;;;2087666;28;20277;-57
2021/09/05 02:51:39;;;;;;;;;;;;;;;;;;2089072;28;20259;-57
2021/09/05 02:52:40;;;;;;;;;;;;;;;;;;2090437;28;20389;-57
2021/09/05 02:53:41;;;;;;;;;;;;;;;;;;2089354;28;19927;-57
2021/09/05 02:54:42;;;;;;;;;;;;;;;;;;2089536;28;19925;-57
2021/09/05 02:55:43;;;;;;;;;;;;;;;;;;2090512;28;19921;-57
2021/09/05 02:56:43;;;;;;;;;;;;;;;;;;2089197;28;19943;-57
2021/09/05 02:57:44;;;;;;;;;;;;;;;;;;2083253;28;19925;-57
2021/09/05 02:58:45;;;;;;;;;;;;;;;;;;2082365;28;20013;-57
2021/09/05 02:59:46;;;;;;;;;;;;;;;;;;2085967;28;19928;-58
2021/09/05 03:00:47;;;;;;;;;;;;;;;;;;2090213;28;19921;-57
2021/09/05 03:01:48;;;;;;;;;;;;;;;;;;2090432;28;19921;-57
2021/09/05 03:02:49;;;;;;;;;;;;;;;;;;2089257;28;20294;-58
2021/09/05 03:03:50;;;;;;;;;;;;;;;;;;2082307;28;20003;-57
2021/09/05 03:04:51;;;;;;;;;;;;;;;;;;2082115;28;20290;-57
2021/09/05 03:05:52;;;;;;;;;;;;;;;;;;2087139;28;20366;-57
2021/09/05 03:06:53;;;;;;;;;;;;;;;;;;2090363;28;19921;-57
2021/09/05 03:07:53;;;;;;;;;;;;;;;;;;2090411;28;20002;-57
2021/09/05 03:08:54;;;;;;;;;;;;;;;;;;2087961;28;19925;-57
2021/09/05 03:09:55;;;;;;;;;;;;;;;;;;2090481;28;19951;-57
2021/09/05 03:10:56;;;;;;;;;;;;;;;;;;2089870;28;19924;-56
2021/09/05 03:11:57;;;;;;;;;;;;;;;;;;2088444;28;19924;-56
2021/09/05 03:12:57;;;;;;;;;;;;;;;;;;2090341;28;20415;-57
2021/09/05 03:13:58;;;;;;;;;;;;;;;;;;2090049;28;19928;-57
2021/09/05 03:14:59;;;;;;;;;;;;;;;;;;2086585;28;19925;-56
2021/09/05 03:16:00;;;;;;;;;;;;;;;;;;2081531;28;19921;-56
2021/09/05 03:17:01;;;;;;;;;;;;;;;;;;2082808;28;19921;-57
2021/09/05 03:18:02;;;;;;;;;;;;;;;;;;2088414;28;19920;-57
2021/09/05 03:19:03;;;;;;;;;;;;;;;;;;2090545;28;19921;-57
2021/09/05 03:20:04;;;;;;;;;;;;;;;;;;2089712;28;19924;-57
2021/09/05 03:21:05;;;;;;;;;;;;;;;;;;2088429;28;19921;-56
2021/09/05 03:22:06;;;;;;;;;;;;;;;;;;2090378;28;19928;-57
2021/09/05 03:23:06;;;;;;;;;;;;;;;;;;2089442;28;20403;-56
2021/09/05 03:24:07;;;;;;;;;;;;;;;;;;2088879;28;19921;-57
2021/09/05 03:25:08;;;;;;;;;;;;;;;;;;2090375;28;20318;-57
2021/09/05 03:26:09;;;;;;;;;;;;;;;;;;2089381;28;20362;-57
2021/09/05 03:27:10;;;;;;;;;;;;;;;;;;2083856;28;19921;-57
2021/09/05 03:28:11;;;;;;;;;;;;;;;;;;2082165;28;19921;-56
2021/09/05 03:29:12;;;;;;;;;;;;;;;;;;2085223;28;21374;-56
2021/09/05 03:30:13;;;;;;;;;;;;;;;;;;2088906;28;19921;-56
2021/09/05 03:31:13;;;;;;;;;;;;;;;;;;2090288;28;19969;-56
2021/09/05 03:32:14;;;;;;;;;;;;;;;;;;2089407;28;19932;-57
2021/09/05 03:33:15;;;;;;;;;;;;;;;;;;2082935;28;19921;-56
2021/09/05 03:34:16;;;;;;;;;;;;;;;;;;2081912;28;19920;-57
2021/09/05 03:35:16;;;;;;;;;;;;;;;;;;2086049;28;19936;-57
2021/09/05 03:36:17;;;;;;;;;;;;;;;;;;2083278;28;19932;-56
2021/09/05 03:37:18;;;;;;;;;;;;;;;;;;2081960;28;19920;-57
2021/09/05 03:38:19;;;;;;;;;;;;;;;;;;2085643;28;19924;-56
2021/09/05 03:39:20;;;;;;;;;;;;;;;;;;2090161;28;19943;-57
2021/09/05 03:40:21;;;;;;;;;;;;;;;;;;2090080;28;19921;-57
2021/09/05 03:41:21;;;;;;;;;;;;;;;;;;2088960;28;19943;-56
2021/09/05 03:42:22;;;;;;;;;;;;;;;;;;2082102;28;20378;-57
2021/09/05 03:43:23;;;;;;;;;;;;;;;;;;2082069;28;19921;-57
2021/09/05 03:44:24;;;;;;;;;;;;;;;;;;2086569;28;20341;-57
2021/09/05 03:45:24;;;;;;;;;;;;;;;;;;2090015;28;19932;-57
2021/09/05 03:46:25;;;;;;;;;;;;;;;;;;2090353;28;20389;-56
2021/09/05 03:47:28;;;;;;;;;;;;;;;;;;2088002;28;19973;-57
2021/09/05 03:48:30;;;;;;;;;;;;;;;;;;2081989;28;20015;-57
2021/09/05 03:49:31;;;;;;;;;;;;;;;;;;2081861;28;20008;-56
2021/09/05 03:50:32;;;;;;;;;;;;;;;;;;2085606;28;20270;-56
2021/09/05 03:51:32;;;;;;;;;;;;;;;;;;2082015;28;19921;-57
2021/09/05 03:52:34;;;;;;;;;;;;;;;;;;2084519;28;19928;-57
2021/09/05 03:53:34;;;;;;;;;;;;;;;;;;2088274;28;19925;-57
2021/09/05 03:54:35;;;;;;;;;;;;;;;;;;2090114;28;20282;-58
2021/09/05 03:55:36;;;;;;;;;;;;;;;;;;2089470;28;19920;-57
2021/09/05 03:56:37;;;;;;;;;;;;;;;;;;2086359;28;19921;-57
2021/09/05 03:57:38;;;;;;;;;;;;;;;;;;2081993;28;19921;-57
2021/09/05 03:58:39;;;;;;;;;;;;;;;;;;2083534;28;19925;-57
2021/09/05 03:59:39;;;;;;;;;;;;;;;;;;2083712;28;20362;-57
2021/09/05 04:00:40;;;;;;;;;;;;;;;;;;2081700;28;19971;-57
2021/09/05 04:01:41;;;;;;;;;;;;;;;;;;2085531;28;20368;-57
2021/09/05 04:02:42;;;;;;;;;;;;;;;;;;2089316;28;20273;-57
2021/09/05 04:03:43;;;;;;;;;;;;;;;;;;2090005;28;19920;-57
2021/09/05 04:04:44;;;;;;;;;;;;;;;;;;2088900;28;19920;-57
2021/09/05 04:05:45;;;;;;;;;;;;;;;;;;2088763;28;19924;-57
2021/09/05 04:06:50;;;;;;;;;;;;;;;;;;2090175;28;19920;-57
2021/09/05 04:08:11;;;;;;;;;;;;;;;;;;2087744;28;19959;-57
2021/09/05 04:09:18;;;;;;;;;;;;;;;;;;2090009;28;20382;-57
2021/09/05 04:10:20;;;;;;;;;;;;;;;;;;2089279;28;19935;-57
2021/09/05 04:11:21;;;;;;;;;;;;;;;;;;2088361;28;19969;-57
2021/09/05 04:12:22;;;;;;;;;;;;;;;;;;2089956;28;19924;-57
2021/09/05 04:13:22;;;;;;;;;;;;;;;;;;2089096;28;19924;-57
2021/09/05 04:14:23;;;;;;;;;;;;;;;;;;2088494;28;20345;-57
2021/09/05 04:15:24;;;;;;;;;;;;;;;;;;2090054;28;19924;-57
2021/09/05 04:16:25;;;;;;;;;;;;;;;;;;2089046;28;19921;-57
2021/09/05 04:17:26;;;;;;;;;;;;;;;;;;2083990;28;19971;-57
2021/09/05 04:18:27;;;;;;;;;;;;;;;;;;2081715;28;19928;-57
2021/09/05 04:19:28;;;;;;;;;;;;;;;;;;2085199;28;19928;-57
2021/09/05 04:20:28;;;;;;;;;;;;;;;;;;2088860;28;19961;-57
2021/09/05 04:21:29;;;;;;;;;;;;;;;;;;2089865;28;19921;-57
2021/09/05 04:22:32;;;;;;;;;;;;;;;;;;2088859;28;19935;-57
2021/09/05 04:23:33;;;;;;;;;;;;;;;;;;2088743;28;20372;-57
2021/09/05 04:24:33;;;;;;;;;;;;;;;;;;2090046;28;19921;-57
2021/09/05 04:25:34;;;;;;;;;;;;;;;;;;2087514;28;20343;-56
2021/09/05 04:26:35;;;;;;;;;;;;;;;;;;2089714;28;20285;-57
2021/09/05 04:27:36;;;;;;;;;;;;;;;;;;2089934;28;19925;-57
2021/09/05 04:28:37;;;;;;;;;;;;;;;;;;2087725;28;19925;-57
2021/09/05 04:29:37;;;;;;;;;;;;;;;;;;2089891;28;19928;-57
2021/09/05 04:30:38;;;;;;;;;;;;;;;;;;2089783;28;19920;-57
2021/09/05 04:31:39;;;;;;;;;;;;;;;;;;2087514;28;19925;-57
2021/09/05 04:32:40;;;;;;;;;;;;;;;;;;2089826;28;19921;-57
2021/09/05 04:33:41;;;;;;;;;;;;;;;;;;2090003;28;19920;-57
2021/09/05 04:34:42;;;;;;;;;;;;;;;;;;2087432;28;20428;-57
2021/09/05 04:35:42;;;;;;;;;;;;;;;;;;2089868;28;19942;-57
2021/09/05 04:36:43;;;;;;;;;;;;;;;;;;2089427;28;20286;-57
2021/09/05 04:37:44;;;;;;;;;;;;;;;;;;2088059;28;19981;-57
2021/09/05 04:38:45;;;;;;;;;;;;;;;;;;2089834;28;19928;-57
2021/09/05 04:39:46;;;;;;;;;;;;;;;;;;2089372;28;19921;-57
2021/09/05 04:40:46;;;;;;;;;;;;;;;;;;2087831;28;19925;-57
2021/09/05 04:41:47;;;;;;;;;;;;;;;;;;2089774;28;19921;-57
2021/09/05 04:42:48;;;;;;;;;;;;;;;;;;2089290;28;19921;-57
2021/09/05 04:43:49;;;;;;;;;;;;;;;;;;2088182;28;19920;-57
2021/09/05 04:44:52;;;;;;;;;;;;;;;;;;2089787;28;19921;-57
2021/09/05 04:45:53;;;;;;;;;;;;;;;;;;2088815;28;20003;-56
2021/09/05 04:46:54;;;;;;;;;;;;;;;;;;2088164;28;20374;-56
2021/09/05 04:47:54;;;;;;;;;;;;;;;;;;2089685;28;19925;-57
2021/09/05 04:48:56;;;;;;;;;;;;;;;;;;2088661;28;19924;-57
2021/09/05 04:49:56;;;;;;;;;;;;;;;;;;2088140;28;19920;-57
2021/09/05 04:50:57;;;;;;;;;;;;;;;;;;2083476;28;20016;-56
2021/09/05 04:51:58;;;;;;;;;;;;;;;;;;2084416;28;19924;-56
2021/09/05 04:52:59;;;;;;;;;;;;;;;;;;2088404;28;19920;-57
2021/09/05 04:53:59;;;;;;;;;;;;;;;;;;2089856;28;19931;-57
2021/09/05 04:55:00;;;;;;;;;;;;;;;;;;2088770;28;20325;-57
2021/09/05 04:56:02;;;;;;;;;;;;;;;;;;2088387;28;19920;-57
2021/09/05 04:57:02;;;;;;;;;;;;;;;;;;2089880;28;20282;-57
2021/09/05 04:58:04;;;;;;;;;;;;;;;;;;2088370;28;19927;-56
2021/09/05 04:59:04;;;;;;;;;;;;;;;;;;2081456;28;19960;-56
2021/09/05 05:00:05;;;;;;;;;;;;;;;;;;2081580;28;20015;-56
2021/09/05 05:01:06;;;;;;;;;;;;;;;;;;2086940;28;19975;-56
2021/09/05 05:02:07;;;;;;;;;;;;;;;;;;2081409;28;19928;-57
2021/09/05 05:03:08;;;;;;;;;;;;;;;;;;2081306;28;19921;-57
2021/09/05 05:04:09;;;;;;;;;;;;;;;;;;2087113;28;20297;-57
2021/09/05 05:05:10;;;;;;;;;;;;;;;;;;2081386;28;19928;-56
2021/09/05 05:06:11;;;;;;;;;;;;;;;;;;2081931;28;19921;-57
2021/09/05 05:07:12;;;;;;;;;;;;;;;;;;2086451;28;20273;-56
2021/09/05 05:08:13;;;;;;;;;;;;;;;;;;2081409;28;20307;-57
2021/09/05 05:09:14;;;;;;;;;;;;;;;;;;2082498;28;19921;-57
2021/09/05 05:10:15;;;;;;;;;;;;;;;;;;2087768;28;20026;-57
2021/09/05 05:11:16;;;;;;;;;;;;;;;;;;2089605;28;19921;-57
2021/09/05 05:12:17;;;;;;;;;;;;;;;;;;2089155;28;19983;-57
2021/09/05 05:13:18;;;;;;;;;;;;;;;;;;2088000;28;20316;-57
2021/09/05 05:14:19;;;;;;;;;;;;;;;;;;2089583;28;20471;-57
2021/09/05 05:15:19;;;;;;;;;;;;;;;;;;2088823;28;19974;-58
2021/09/05 05:16:22;;;;;;;;;;;;;;;;;;2088046;28;20296;-57
2021/09/05 05:17:23;;;;;;;;;;;;;;;;;;2089714;28;20247;-57
2021/09/05 05:18:23;;;;;;;;;;;;;;;;;;2088644;28;19931;-57
2021/09/05 05:19:24;;;;;;;;;;;;;;;;;;2084320;28;19932;-57
2021/09/05 05:20:25;;;;;;;;;;;;;;;;;;2081360;28;19921;-57
2021/09/05 05:21:27;;;;;;;;;;;;;;;;;;2084731;28;19921;-57
2021/09/05 05:22:28;;;;;;;;;;;;;;;;;;2088151;28;19967;-57
2021/09/05 05:23:29;;;;;;;;;;;;;;;;;;2089563;28;19928;-57
2021/09/05 05:24:30;;;;;;;;;;;;;;;;;;2088137;28;20425;-57
2021/09/05 05:25:31;;;;;;;;;;;;;;;;;;2088704;28;19928;-57
2021/09/05 05:26:31;;;;;;;;;;;;;;;;;;2089530;28;19927;-57
2021/09/05 05:27:32;;;;;;;;;;;;;;;;;;2087672;28;19921;-57
2021/09/05 05:28:33;;;;;;;;;;;;;;;;;;2088351;28;20329;-57
2021/09/05 05:29:34;;;;;;;;;;;;;;;;;;2089629;28;19921;-57
2021/09/05 05:30:35;;;;;;;;;;;;;;;;;;2087293;28;19929;-56
2021/09/05 05:31:36;;;;;;;;;;;;;;;;;;2089364;28;19971;-57
2021/09/05 05:32:37;;;;;;;;;;;;;;;;;;2089491;28;19921;-57
2021/09/05 05:33:37;;;;;;;;;;;;;;;;;;2088072;28;19927;-57
2021/09/05 05:34:38;;;;;;;;;;;;;;;;;;2081361;28;20043;-58
2021/09/05 05:35:39;;;;;;;;;;;;;;;;;;2081313;28;19948;-57
2021/09/05 05:36:40;;;;;;;;;;;;;;;;;;2086886;28;19990;-58
2021/09/05 05:37:40;;;;;;;;;;;;;;;;;;2081249;28;19921;-57
2021/09/05 05:38:41;;;;;;;;;;;;;;;;;;2081271;28;19928;-57
2021/09/05 05:39:42;;;;;;;;;;;;;;;;;;2085590;28;19925;-57
2021/09/05 05:40:43;;;;;;;;;;;;;;;;;;2082673;28;19928;-57
2021/09/05 05:41:44;;;;;;;;;;;;;;;;;;2084537;28;19921;-57
2021/09/05 05:42:45;;;;;;;;;;;;;;;;;;2089536;28;19925;-57
2021/09/05 05:43:46;;;;;;;;;;;;;;;;;;2090919;28;19927;-57
2021/09/05 05:44:46;;;;;;;;;;;;;;;;;;2090118;28;19924;-57
2021/09/05 05:45:47;;;;;;;;;;;;;;;;;;2090368;28;19927;-58
2021/09/05 05:46:48;;;;;;;;;;;;;;;;;;2090849;28;19920;-57
2021/09/05 05:47:49;;;;;;;;;;;;;;;;;;2089997;28;19920;-58
2021/09/05 05:48:49;;;;;;;;;;;;;;;;;;2089442;28;19932;-58
2021/09/05 05:49:50;;;;;;;;;;;;;;;;;;2090961;28;19921;-58
2021/09/05 05:50:53;;;;;;;;;;;;;;;;;;2087743;28;19927;-58
2021/09/05 05:51:54;;;;;;;;;;;;;;;;;;2089459;28;19972;-58
2021/09/05 05:52:54;;;;;;;;;;;;;;;;;;2090954;28;20347;-58
2021/09/05 05:53:55;;;;;;;;;;;;;;;;;;2089181;28;20282;-58
2021/09/05 05:54:56;;;;;;;;;;;;;;;;;;2089691;28;20019;-58
2021/09/05 05:55:58;;;;;;;;;;;;;;;;;;2090771;28;19974;-58
2021/09/05 05:56:58;;;;;;;;;;;;;;;;;;2089644;28;20425;-58
2021/09/05 05:57:59;;;;;;;;;;;;;;;;;;2083151;28;20005;-59
2021/09/05 05:59:00;;;;;;;;;;;;;;;;;;2082834;28;20436;-58
2021/09/05 06:00:01;;;;;;;;;;;;;;;;;;2088120;28;20011;-58
2021/09/05 06:01:02;;;;;;;;;;;;;;;;;;2082637;28;19921;-58
2021/09/05 06:02:03;;;;;;;;;;;;;;;;;;2082605;28;19921;-58
2021/09/05 06:03:04;;;;;;;;;;;;;;;;;;2088317;28;20008;-59
2021/09/05 06:04:05;;;;;;;;;;;;;;;;;;2082538;28;20424;-59
2021/09/05 06:05:05;;;;;;;;;;;;;;;;;;2082506;28;19928;-59
2021/09/05 06:06:07;;;;;;;;;;;;;;;;;;2088289;28;20216;-59
2021/09/05 06:07:08;;;;;;;;;;;;;;;;;;2090765;28;19925;-58
2021/09/05 06:08:08;;;;;;;;;;;;;;;;;;2090389;28;19928;-59
2021/09/05 06:09:09;;;;;;;;;;;;;;;;;;2088109;28;19928;-59
2021/09/05 06:10:10;;;;;;;;;;;;;;;;;;2082644;28;19928;-58
2021/09/05 06:11:11;;;;;;;;;;;;;;;;;;2082838;28;19971;-59
2021/09/05 06:12:12;;;;;;;;;;;;;;;;;;2088927;28;19927;-59
2021/09/05 06:13:13;;;;;;;;;;;;;;;;;;2090805;28;20007;-58
2021/09/05 06:14:14;;;;;;;;;;;;;;;;;;2090201;28;19944;-59
2021/09/05 06:15:15;;;;;;;;;;;;;;;;;;2088783;28;19925;-58
2021/09/05 06:16:16;;;;;;;;;;;;;;;;;;2090876;28;19927;-58
2021/09/05 06:17:16;;;;;;;;;;;;;;;;;;2090193;28;19927;-58
2021/09/05 06:18:17;;;;;;;;;;;;;;;;;;2088957;28;19920;-58
2021/09/05 06:19:21;;;;;;;;;;;;;;;;;;2090828;28;20289;-59
2021/09/05 06:20:21;;;;;;;;;;;;;;;;;;2089883;28;20059;-59
2021/09/05 06:21:22;;;;;;;;;;;;;;;;;;2085688;28;19925;-59
2021/09/05 06:22:23;;;;;;;;;;;;;;;;;;2082564;28;19971;-59
2021/09/05 06:23:24;;;;;;;;;;;;;;;;;;2085133;28;19932;-59
2021/09/05 06:24:25;;;;;;;;;;;;;;;;;;2089294;28;20058;-59
2021/09/05 06:25:25;;;;;;;;;;;;;;;;;;2090763;28;20285;-58
2021/09/05 06:26:26;;;;;;;;;;;;;;;;;;2089763;28;19974;-58
2021/09/05 06:27:27;;;;;;;;;;;;;;;;;;2089242;28;19921;-58
2021/09/05 06:28:28;;;;;;;;;;;;;;;;;;2090885;28;19967;-58
2021/09/05 06:29:29;;;;;;;;;;;;;;;;;;2089374;28;19920;-59
2021/09/05 06:30:29;;;;;;;;;;;;;;;;;;2089869;28;19928;-46
2021/09/05 06:31:30;;;;;;;;;;;;;;;;;;2090780;28;19932;-48
2021/09/05 06:32:31;;;;;;;;;;;;;;;;;;2089726;28;20266;-46
2021/09/05 06:33:32;;;;;;;;;;;;;;;;;;2090360;28;19921;-46
2021/09/05 06:34:33;;;;;;;;;;;;;;;;;;2090667;28;19927;-46
2021/09/05 06:35:34;;;;;;;;;;;;;;;;;;2088174;28;19928;-46
2021/09/05 06:36:34;;;;;;;;;;;;;;;;;;2090510;28;19924;-46
2021/09/05 06:37:35;;;;;;;;;;;;;;;;;;2090887;28;19932;-46
2021/09/05 06:38:36;;;;;;;;;;;;;;;;;;2088505;28;20058;-46
2021/09/05 06:39:37;;;;;;;;;;;;;;;;;;2090703;28;19925;-47
2021/09/05 06:40:38;;;;;;;;;;;;;;;;;;2090582;28;19921;-47
2021/09/05 06:41:39;;;;;;;;;;;;;;;;;;2087307;28;19932;-46
2021/09/05 06:42:40;;;;;;;;;;;;;;;;;;2090565;28;19924;-46
2021/09/05 06:43:40;;;;;;;;;;;;;;;;;;2090811;28;19920;-46
2021/09/05 06:44:41;;;;;;;;;;;;;;;;;;2088072;28;19921;-51
2021/09/05 06:45:42;;;;;;;;;;;;;;;;;;2082163;28;20425;-46
2021/09/05 06:46:43;;;;;;;;;;;;;;;;;;2082102;28;20382;-46
2021/09/05 06:47:44;;;;;;;;;;;;;;;;;;2087877;28;19947;-46
2021/09/05 06:48:44;;;;;;;;;;;;;;;;;;2082502;28;19924;-46
2021/09/05 06:49:45;;;;;;;;;;;;;;;;;;2082787;28;19924;-46
2021/09/05 06:50:47;;;;;;;;;;;;;;;;;;2083386;28;19975;-47
2021/09/05 06:51:47;;;;;;;;;;;;;;;;;;2081717;28;20441;-47
2021/09/05 06:52:48;;;;;;;;;;;;;;;;;;2085237;28;19920;-47
2021/09/05 06:53:49;;;;;;;;;;;;;;;;;;2084901;28;19921;-46
2021/09/05 06:54:50;;;;;;;;;;;;;;;;;;2082255;28;19921;-46
2021/09/05 06:55:50;;;;;;;;;;;;;;;;;;2085613;28;19974;-49